Licenciado y General Ignacio Lopez Rayon Airport
MMPN : now visible

Airfield :











YOU CAN JOIN US ON...

 
LOGIN :

Register | Disclaimer

   EN    FR    IT 

 









Legend :    VFR   Marginal VFR   IFR   Intensive IFR   Very Intensive IFR
Visi :
Ceiling :
>= 8 km
>= 3000ft
5 to 8 km
1000 to 3000 ft
1500m to 5 km
500 to 1000 ft
800 to 1500m
200 to 500 ft
< 800m
< 200 ft
Symbols :   Thunderstorms  Fog  Heavy snow  Heavy precipitations  Wind > 20 kt






- Airport Elevation : 5258 ft
- IATA code : UPN


MMPN - Licenciado y General Ignacio Lopez Rayon

CURRENT METAR :
  • 112242Z 18006KT 10SM BKN280 23/11 A3020 RMK 8/001

EXPIRED METARs :
  • 112142Z 18008KT 10SM BKN280 23/12 A3020 RMK 8/001
  • 112044Z 18010KT 10SM BKN280 23/11 A3020 RMK 8/001 HZY CU

TAF TAF MMPN
Valid from the 11 at 18:00 until the 12 at 18:00 UTC


111628Z 1118/1218 20010KT P6SM SKC
BECMG 1201/1202 00000KT
FM121600 23010KT P6SM BKN240



MET'MAP, your aeronautical weather chart ! - Copyright ORBIFLY December 2007 - Disclaimer

ORBIFLY MET'MAP TEAM :

Programming & Development : Alexandra Zaïnal
Concept & original design : Baudouin d'Aumeries
Assistance for programming : Marc-Olivier Méhu
Technical & hardware support : Manuel Goepfert

Contact : metmap@orbifly.com




SOURCES & CREDITS :

   NOAA       Earth
Advisory